WXM80 ListenWXM80 Stop

You find our weather info also at:

UK Metoffice

WeatherCloud

Weather Underground

Northeastern Weather Network

AWEKAS

Citizen Weather Observer Program (CWOP)

HAMweather, WeatherForYou, PWS Weather


Weather Underground History page Text

Daily Summary for July 27, 2016 Units:  English    Metric   Both
« Previous Day
Next Day »
Daily Weekly Monthly Yearly Custom
  High: Low: Average:
Temperature: 95.5 °F 68.1 °F 81.3 °F
Dew Point: 71.8 °F 64.6 °F 67.6 °F
Humidity: 93 % 38 % 66 %
Wind Speed: 5.4 mph 0.0 mph 0.9 mph
Wind Gust: 8.1 mph - -
Wind:- - SSW
Pressure: 29.92 in 29.84 in -
Precipitation: 0.00 in    
Historical Graphs
 
 
Tabular Data for July 27, 2016
Time Temperature Dew Point Pressure Wind Wind Speed Wind Gust Humidity Rainfall Rate (Hourly)
00:01 76.0 °F 67.5 °F 29.90 in Calm   1.2 mph 75 % 0.00 in
00:06 75.9 °F 67.4 °F 29.90 in WNW 1.3 mph 3.5 mph 75 % 0.00 in
00:11 75.9 °F 67.8 °F 29.90 in Calm   1.2 mph 76 % 0.00 in
00:16 75.8 °F 67.7 °F 29.89 in WNW 0.4 mph 1.2 mph 76 % 0.00 in
00:21 75.8 °F 67.7 °F 29.90 in Calm   1.2 mph 76 % 0.00 in
00:26 75.8 °F 67.7 °F 29.89 in Calm     76 % 0.00 in
00:31 75.7 °F 68.0 °F 29.89 in Calm     77 % 0.00 in
00:36 75.6 °F 67.9 °F 29.89 in Calm   1.2 mph 77 % 0.00 in
00:41 75.5 °F 67.4 °F 29.89 in Calm   1.2 mph 76 % 0.00 in
00:47 75.4 °F 67.7 °F 29.89 in Calm     77 % 0.00 in
00:52 75.3 °F 68.0 °F 29.89 in Calm   2.3 mph 78 % 0.00 in
00:57 75.2 °F 67.9 °F 29.89 in Calm     78 % 0.00 in
01:02 75.0 °F 67.7 °F 29.89 in WNW 0.4 mph 1.2 mph 78 % 0.00 in
01:07 74.8 °F 67.8 °F 29.89 in WNW 0.3 mph 1.2 mph 79 % 0.00 in
01:12 74.6 °F 67.7 °F 29.89 in Calm     79 % 0.00 in
01:17 74.4 °F 67.5 °F 29.89 in WNW 0.2 mph 2.0 mph 79 % 0.00 in
01:22 74.2 °F 66.9 °F 29.89 in NNE 0.1 mph 1.0 mph 78 % 0.00 in
01:27 74.0 °F 66.7 °F 29.89 in NNE 0.2 mph 2.0 mph 78 % 0.00 in
01:32 73.9 °F 66.2 °F 29.90 in NNW 0.5 mph 3.5 mph 77 % 0.00 in
01:38 73.8 °F 66.1 °F 29.90 in Calm   1.2 mph 77 % 0.00 in
01:43 73.8 °F 66.1 °F 29.90 in Calm   1.2 mph 77 % 0.00 in
01:48 73.8 °F 66.1 °F 29.90 in Calm   2.3 mph 77 % 0.00 in
01:53 73.8 °F 66.5 °F 29.90 in Calm     78 % 0.00 in
01:58 73.8 °F 66.5 °F 29.90 in Calm     78 % 0.00 in
02:03 73.7 °F 66.4 °F 29.90 in NW 0.2 mph 1.0 mph 78 % 0.00 in
02:08 73.6 °F 66.7 °F 29.90 in NW 0.4 mph 1.2 mph 79 % 0.00 in
02:13 73.5 °F 66.2 °F 29.90 in Calm     78 % 0.00 in
02:18 73.4 °F 66.1 °F 29.89 in Calm     78 % 0.00 in
02:23 73.3 °F 66.0 °F 29.89 in Calm   1.2 mph 78 % 0.00 in
02:29 73.1 °F 65.8 °F 29.89 in NW 0.8 mph   78 % 0.00 in
02:34 73.0 °F 66.1 °F 29.89 in Calm     79 % 0.00 in
02:39 72.9 °F 66.4 °F 29.89 in Calm     80 % 0.00 in
02:44 72.7 °F 66.2 °F 29.89 in Calm     80 % 0.00 in
02:49 72.5 °F 66.3 °F 29.89 in NW 0.2 mph 1.0 mph 81 % 0.00 in
02:54 72.3 °F 66.1 °F 29.89 in NW 0.8 mph 2.3 mph 81 % 0.00 in
02:59 72.2 °F 66.0 °F 29.89 in Calm     81 % 0.00 in
03:04 72.0 °F 65.8 °F 29.89 in Calm     81 % 0.00 in
03:09 71.8 °F 65.7 °F 29.90 in Calm     81 % 0.00 in
03:14 71.7 °F 65.6 °F 29.90 in Calm     81 % 0.00 in
03:20 71.5 °F 65.7 °F 29.89 in Calm     82 % 0.00 in
03:25 71.4 °F 65.6 °F 29.90 in Calm     82 % 0.00 in
03:30 71.2 °F 65.4 °F 29.90 in Calm     82 % 0.00 in
03:35 71.1 °F 65.3 °F 29.90 in Calm     82 % 0.00 in
03:40 70.9 °F 65.5 °F 29.90 in Calm     83 % 0.00 in
03:45 70.7 °F 65.6 °F 29.90 in Calm     84 % 0.00 in
03:50 70.6 °F 65.5 °F 29.90 in NW 0.2 mph 1.0 mph 84 % 0.00 in
03:55 70.5 °F 65.4 °F 29.90 in Calm   1.2 mph 84 % 0.00 in
04:00 70.3 °F 65.2 °F 29.90 in Calm     84 % 0.00 in
04:05 70.2 °F 65.5 °F 29.90 in Calm     85 % 0.00 in
04:11 70.1 °F 65.4 °F 29.90 in Calm     85 % 0.00 in
04:16 69.9 °F 65.2 °F 29.90 in Calm     85 % 0.00 in
04:21 69.8 °F 65.1 °F 29.90 in Calm     85 % 0.00 in
04:26 69.7 °F 65.3 °F 29.90 in Calm   1.0 mph 86 % 0.00 in
04:31 69.5 °F 65.1 °F 29.90 in Calm   1.0 mph 86 % 0.00 in
04:36 69.4 °F 65.0 °F 29.91 in Calm     86 % 0.00 in
04:41 69.3 °F 64.9 °F 29.91 in Calm   1.0 mph 86 % 0.00 in
04:46 69.2 °F 64.8 °F 29.91 in Calm     86 % 0.00 in
04:51 69.1 °F 65.0 °F 29.91 in Calm     87 % 0.00 in
04:56 69.0 °F 65.0 °F 29.91 in Calm   1.0 mph 87 % 0.00 in
05:01 68.8 °F 64.8 °F 29.91 in NW 0.3 mph 1.2 mph 87 % 0.00 in
05:06 68.7 °F 65.0 °F 29.91 in Calm   1.0 mph 88 % 0.00 in
05:11 68.6 °F 64.6 °F 29.91 in Calm     87 % 0.00 in
05:12 68.6 °F 64.9 °F 29.91 in Calm   1.2 mph 88 % 0.00 in
05:15 68.5 °F 64.8 °F 29.91 in Calm     88 % 0.00 in
05:20 68.5 °F 64.8 °F 29.91 in Calm     88 % 0.00 in
05:25 68.4 °F 64.7 °F 29.91 in NW 0.1 mph 1.2 mph 88 % 0.00 in
05:30 68.4 °F 64.7 °F 29.91 in Calm     88 % 0.00 in
05:35 68.3 °F 64.9 °F 29.91 in Calm     89 % 0.00 in
05:40 68.3 °F 64.9 °F 29.91 in Calm     89 % 0.00 in
05:46 68.2 °F 64.8 °F 29.91 in Calm     89 % 0.00 in
05:51 68.1 °F 64.7 °F 29.91 in Calm     89 % 0.00 in
05:56 68.1 °F 64.7 °F 29.91 in Calm     89 % 0.00 in
06:01 68.1 °F 64.7 °F 29.91 in Calm     89 % 0.00 in
06:06 68.1 °F 64.7 °F 29.91 in Calm     89 % 0.00 in
06:11 68.1 °F 65.0 °F 29.91 in Calm     90 % 0.00 in
06:16 68.1 °F 65.1 °F 29.91 in Calm   1.2 mph 90 % 0.00 in
06:21 68.1 °F 65.4 °F 29.92 in Calm     91 % 0.00 in
06:26 68.2 °F 65.5 °F 29.92 in Calm     91 % 0.00 in
06:31 68.3 °F 65.6 °F 29.92 in Calm     91 % 0.00 in
06:36 68.4 °F 66.0 °F 29.92 in Calm     92 % 0.00 in
06:41 68.6 °F 66.2 °F 29.92 in Calm     92 % 0.00 in
06:46 68.9 °F 66.5 °F 29.92 in NW 0.2 mph 2.3 mph 92 % 0.00 in
06:51 69.1 °F 66.7 °F 29.92 in Calm     92 % 0.00 in
06:56 69.4 °F 67.3 °F 29.92 in Calm     93 % 0.00 in
07:01 69.8 °F 67.4 °F 29.92 in Calm   1.2 mph 92 % 0.00 in
07:06 70.2 °F 67.8 °F 29.92 in Calm     92 % 0.00 in
07:11 70.8 °F 68.0 °F 29.92 in NW 0.1 mph 1.2 mph 91 % 0.00 in
07:16 71.5 °F 68.7 °F 29.92 in Calm   1.2 mph 91 % 0.00 in
07:21 72.2 °F 68.8 °F 29.92 in NW 0.1 mph 1.2 mph 89 % 0.00 in
07:26 72.8 °F 68.4 °F 29.92 in NW 0.1 mph   86 % 0.00 in
07:31 73.2 °F 68.4 °F 29.92 in NNW 0.5 mph 3.5 mph 85 % 0.00 in
07:36 73.7 °F 68.2 °F 29.92 in NW 2.1 mph 2.1 mph 83 % 0.00 in
07:41 74.1 °F 68.3 °F 29.92 in North 1.9 mph 2.3 mph 82 % 0.00 in
07:47 74.4 °F 68.2 °F 29.92 in North 0.3 mph 1.2 mph 81 % 0.00 in
07:52 74.7 °F 67.8 °F 29.92 in NW 0.6 mph 2.3 mph 79 % 0.00 in
07:57 74.9 °F 68.3 °F 29.92 in Calm     80 % 0.00 in
08:02 75.0 °F 67.3 °F 29.92 in WNW 1.4 mph 3.5 mph 77 % 0.00 in
08:07 75.1 °F 67.4 °F 29.92 in WNW 0.1 mph 1.2 mph 77 % 0.00 in
08:12 75.2 °F 67.1 °F 29.92 in NNE 0.1 mph 1.2 mph 76 % 0.00 in
08:17 75.2 °F 67.1 °F 29.92 in North 0.2 mph 1.2 mph 76 % 0.00 in
08:22 75.3 °F 68.0 °F 29.92 in North 0.3 mph 2.3 mph 78 % 0.00 in
08:27 75.3 °F 66.8 °F 29.92 in North 0.3 mph 1.2 mph 75 % 0.00 in
08:32 75.5 °F 67.4 °F 29.92 in North 0.4 mph 1.2 mph 76 % 0.00 in
08:38 75.7 °F 67.2 °F 29.92 in North 0.6 mph 3.5 mph 75 % 0.00 in
08:43 75.8 °F 67.7 °F 29.92 in North 0.5 mph 1.2 mph 76 % 0.00 in
08:48 75.9 °F 66.6 °F 29.92 in North 1.1 mph 2.3 mph 73 % 0.00 in
08:53 76.0 °F 66.3 °F 29.92 in North 0.5 mph 2.3 mph 72 % 0.00 in
08:58 76.1 °F 66.4 °F 29.92 in North 1.3 mph 2.3 mph 72 % 0.00 in
09:03 76.2 °F 66.9 °F 29.92 in North 2.4 mph 3.5 mph 73 % 0.00 in
09:08 76.4 °F 66.3 °F 29.92 in North 0.5 mph 2.3 mph 71 % 0.00 in
09:13 76.6 °F 66.9 °F 29.92 in North 1.5 mph 3.5 mph 72 % 0.00 in
09:18 76.6 °F 66.1 °F 29.92 in WNW 1.8 mph 3.5 mph 70 % 0.00 in
09:23 76.8 °F 66.3 °F 29.92 in NW 1.1 mph 3.5 mph 70 % 0.00 in
09:29 77.0 °F 66.0 °F 29.92 in WNW 3.1 mph 3.5 mph 69 % 0.00 in
09:34 77.1 °F 66.6 °F 29.92 in NNE 2.5 mph 3.5 mph 70 % 0.00 in
09:39 77.2 °F 65.8 °F 29.92 in NNE 1.2 mph 3.5 mph 68 % 0.00 in
09:44 77.3 °F 65.5 °F 29.92 in North 2.4 mph 4.6 mph 67 % 0.00 in
09:49 77.5 °F 65.2 °F 29.92 in NNE 1.9 mph 3.5 mph 66 % 0.00 in
09:54 77.6 °F 65.8 °F 29.92 in NNE 2.4 mph 3.5 mph 67 % 0.00 in
09:59 78.0 °F 66.2 °F 29.92 in North 0.9 mph 2.3 mph 67 % 0.00 in
10:04 78.6 °F 66.3 °F 29.92 in NW 2.9 mph 3.5 mph 66 % 0.00 in
10:09 79.4 °F 67.0 °F 29.92 in NW 0.6 mph 2.0 mph 66 % 0.00 in
10:14 80.5 °F 66.7 °F 29.92 in WNW 2.1 mph 3.5 mph 63 % 0.00 in
10:20 81.6 °F 66.4 °F 29.92 in SSE 0.5 mph 1.2 mph 60 % 0.00 in
10:25 82.5 °F 68.2 °F 29.92 in NNE 0.9 mph 3.5 mph 62 % 0.00 in
10:30 83.6 °F 66.8 °F 29.92 in NNE 1.4 mph 4.6 mph 57 % 0.00 in
10:35 84.5 °F 67.1 °F 29.92 in NNW 2.0 mph 3.5 mph 56 % 0.00 in
10:40 85.3 °F 68.3 °F 29.92 in NNW 0.3 mph 3.0 mph 57 % 0.00 in
10:45 86.3 °F 68.2 °F 29.92 in NNE 1.7 mph 3.5 mph 55 % 0.00 in
10:50 86.8 °F 67.1 °F 29.92 in NW 0.1 mph 2.0 mph 52 % 0.00 in
10:55 87.6 °F 70.0 °F 29.92 in NNE 0.9 mph 3.5 mph 56 % 0.00 in
11:00 88.2 °F 67.2 °F 29.92 in North 1.4 mph 3.5 mph 50 % 0.00 in
11:06 88.8 °F 67.2 °F 29.92 in North 1.2 mph 4.6 mph 49 % 0.00 in
11:11 89.3 °F 68.3 °F 29.92 in North 1.0 mph 4.0 mph 50 % 0.00 in
11:16 89.8 °F 67.5 °F 29.92 in NE 1.0 mph 5.0 mph 48 % 0.00 in
11:21 90.1 °F 68.4 °F 29.92 in North 2.0 mph 4.0 mph 49 % 0.00 in
11:26 90.5 °F 69.3 °F 29.92 in North 1.0 mph 3.0 mph 50 % 0.00 in
11:31 90.6 °F 67.0 °F 29.92 in North 2.0 mph 5.0 mph 46 % 0.00 in
11:36 90.4 °F 66.2 °F 29.92 in NE 2.7 mph 4.0 mph 45 % 0.00 in
11:41 90.1 °F 66.5 °F 29.92 in North 2.8 mph 4.6 mph 46 % 0.00 in
11:46 90.2 °F 67.9 °F 29.92 in NNE 2.3 mph 3.5 mph 48 % 0.00 in
11:51 90.4 °F 66.8 °F 29.92 in North 2.8 mph 3.5 mph 46 % 0.00 in
11:56 90.5 °F 68.7 °F 29.92 in NNE 1.7 mph 3.5 mph 49 % 0.00 in
12:01 90.8 °F 67.2 °F 29.92 in NNE 2.8 mph 4.0 mph 46 % 0.00 in
12:06 90.9 °F 68.5 °F 29.92 in ENE 1.2 mph 3.5 mph 48 % 0.00 in
12:11 91.3 °F 69.5 °F 29.92 in NE 1.1 mph 3.5 mph 49 % 0.00 in
12:16 91.6 °F 67.9 °F 29.91 in NE 0.9 mph 2.3 mph 46 % 0.00 in
12:22 91.8 °F 68.7 °F 29.91 in North 2.6 mph 4.6 mph 47 % 0.00 in
12:27 92.1 °F 69.6 °F 29.92 in North 2.3 mph 5.8 mph 48 % 0.00 in
12:32 92.2 °F 67.8 °F 29.92 in North 2.9 mph 4.6 mph 45 % 0.00 in
12:37 92.2 °F 70.3 °F 29.91 in NNE 2.9 mph 5.0 mph 49 % 0.00 in
12:42 92.3 °F 69.2 °F 29.91 in NNE 2.2 mph 4.0 mph 47 % 0.00 in
12:47 92.4 °F 68.6 °F 29.91 in NNW 1.4 mph 3.5 mph 46 % 0.00 in
12:52 92.4 °F 68.6 °F 29.91 in ENE 1.9 mph 3.5 mph 46 % 0.00 in
12:57 92.5 °F 69.3 °F 29.92 in North 1.6 mph 3.5 mph 47 % 0.00 in
13:02 92.7 °F 69.5 °F 29.91 in North 2.8 mph 4.6 mph 47 % 0.00 in
13:07 92.9 °F 67.8 °F 29.91 in NNW 0.8 mph 4.6 mph 44 % 0.00 in
13:13 92.8 °F 69.6 °F 29.91 in NE 0.5 mph 3.5 mph 47 % 0.00 in
13:18 93.1 °F 70.5 °F 29.91 in NW 1.5 mph 3.5 mph 48 % 0.00 in
13:23 93.5 °F 67.6 °F 29.91 in WNW 1.9 mph 5.8 mph 43 % 0.00 in
13:28 93.6 °F 67.7 °F 29.91 in West 3.4 mph 8.1 mph 43 % 0.00 in
13:33 93.7 °F 67.1 °F 29.91 in WNW 3.7 mph 5.8 mph 42 % 0.00 in
13:38 93.9 °F 71.8 °F 29.90 in WSW 2.9 mph 3.5 mph 49 % 0.00 in
13:43 93.9 °F 68.0 °F 29.90 in SW 3.2 mph 5.8 mph 43 % 0.00 in
13:48 94.0 °F 68.8 °F 29.90 in North 1.2 mph 4.6 mph 44 % 0.00 in
13:53 94.4 °F 71.1 °F 29.90 in NW 1.0 mph 2.3 mph 47 % 0.00 in
13:58 94.7 °F 68.0 °F 29.90 in WSW 4.3 mph 8.0 mph 42 % 0.00 in
14:04 94.7 °F 68.7 °F 29.90 in West 1.7 mph 4.6 mph 43 % 0.00 in
14:09 94.8 °F 66.7 °F 29.89 in SW 2.9 mph 4.6 mph 40 % 0.00 in
14:14 94.9 °F 68.2 °F 29.89 in West 3.2 mph 5.8 mph 42 % 0.00 in
14:19 94.8 °F 67.4 °F 29.89 in WSW 2.4 mph 5.8 mph 41 % 0.00 in
14:24 94.7 °F 68.0 °F 29.89 in WNW 2.3 mph 4.0 mph 42 % 0.00 in
14:29 94.5 °F 68.5 °F 29.89 in NW 1.4 mph 3.0 mph 43 % 0.00 in
14:34 94.4 °F 68.5 °F 29.90 in WNW 1.1 mph 2.3 mph 43 % 0.00 in
14:39 94.3 °F 69.7 °F 29.89 in North 0.8 mph 3.5 mph 45 % 0.00 in
14:44 94.2 °F 68.9 °F 29.89 in South 0.9 mph 2.3 mph 44 % 0.00 in
14:49 94.2 °F 67.6 °F 29.89 in NNE 1.2 mph 3.5 mph 42 % 0.00 in
14:55 94.2 °F 68.9 °F 29.89 in NNE 1.7 mph 2.3 mph 44 % 0.00 in
15:00 94.3 °F 67.7 °F 29.88 in NNE 4.9 mph 5.0 mph 42 % 0.00 in
15:05 94.1 °F 67.5 °F 29.89 in NNE 1.0 mph 3.5 mph 42 % 0.00 in
15:10 94.3 °F 67.7 °F 29.88 in WNW 0.2 mph 2.0 mph 42 % 0.00 in
15:15 94.4 °F 67.8 °F 29.88 in WNW 2.1 mph 3.5 mph 42 % 0.00 in
15:20 94.6 °F 66.5 °F 29.88 in WNW 4.6 mph 5.0 mph 40 % 0.00 in
15:25 94.7 °F 68.7 °F 29.88 in NW 2.2 mph 6.9 mph 43 % 0.00 in
15:30 94.8 °F 68.1 °F 29.88 in NW 1.3 mph 5.8 mph 42 % 0.00 in
15:35 94.9 °F 66.8 °F 29.87 in NW 2.9 mph 5.8 mph 40 % 0.00 in
15:40 95.0 °F 69.7 °F 29.87 in WNW 1.5 mph 6.9 mph 44 % 0.00 in
15:46 95.1 °F 67.0 °F 29.87 in WNW 3.0 mph 7.0 mph 40 % 0.00 in
15:51 95.2 °F 67.8 °F 29.87 in WNW 2.0 mph 6.0 mph 41 % 0.00 in
15:56 95.2 °F 67.8 °F 29.87 in Calm   6.0 mph 41 % 0.00 in
16:01 95.3 °F 66.4 °F 29.87 in WNW 5.4 mph 5.4 mph 39 % 0.00 in
16:06 95.3 °F 66.4 °F 29.87 in NNE 1.9 mph 5.8 mph 39 % 0.00 in
16:11 95.4 °F 65.8 °F 29.87 in West 1.9 mph 5.0 mph 38 % 0.00 in
16:16 95.5 °F 66.6 °F 29.87 in West 2.0 mph 4.6 mph 39 % 0.00 in
16:21 95.5 °F 65.9 °F 29.87 in SW 4.4 mph 6.9 mph 38 % 0.00 in
16:26 95.4 °F 65.8 °F 29.86 in WNW 1.9 mph 3.5 mph 38 % 0.00 in
16:31 95.4 °F 65.8 °F 29.86 in WSW 1.5 mph 3.5 mph 38 % 0.00 in
16:36 95.2 °F 67.8 °F 29.86 in West 0.4 mph 2.0 mph 41 % 0.00 in
16:41 95.1 °F 67.0 °F 29.86 in West 2.1 mph 4.6 mph 40 % 0.00 in
16:46 95.1 °F 68.4 °F 29.86 in West 3.5 mph 4.6 mph 42 % 0.00 in
16:52 95.1 °F 65.5 °F 29.85 in West 3.7 mph 6.9 mph 38 % 0.00 in
16:57 95.2 °F 66.3 °F 29.85 in WNW 1.1 mph 3.5 mph 39 % 0.00 in
17:02 94.8 °F 66.7 °F 29.85 in NNE 0.4 mph 3.5 mph 40 % 0.00 in
17:12 94.2 °F 66.2 °F 29.85 in NE 0.9 mph 2.0 mph 40 % 0.00 in
17:17 93.9 °F 65.9 °F 29.85 in NNE 0.2 mph 3.5 mph 40 % 0.00 in
17:22 93.4 °F 66.9 °F 29.85 in NNE 0.5 mph 1.2 mph 42 % 0.00 in
17:27 93.0 °F 66.5 °F 29.85 in NNE 1.3 mph 3.5 mph 42 % 0.00 in
17:32 92.7 °F 65.6 °F 29.85 in NNW 0.5 mph 3.5 mph 41 % 0.00 in
17:38 92.3 °F 65.9 °F 29.85 in NNW 2.3 mph 3.0 mph 42 % 0.00 in
17:43 92.0 °F 66.3 °F 29.85 in WNW 0.1 mph   43 % 0.00 in
17:48 91.4 °F 69.0 °F 29.85 in East 1.4 mph 3.5 mph 48 % 0.00 in
17:53 91.1 °F 68.1 °F 29.85 in SSE 0.7 mph 3.5 mph 47 % 0.00 in
17:58 91.2 °F 68.2 °F 29.85 in SW 1.5 mph 3.5 mph 47 % 0.00 in
18:03 91.1 °F 68.1 °F 29.85 in SW 1.9 mph 3.5 mph 47 % 0.00 in
18:08 91.0 °F 68.6 °F 29.85 in WSW 1.8 mph 3.5 mph 48 % 0.00 in
18:13 90.7 °F 67.7 °F 29.85 in SE 2.1 mph 3.5 mph 47 % 0.00 in
18:18 90.4 °F 68.6 °F 29.85 in SW 0.2 mph 3.5 mph 49 % 0.00 in
18:23 90.1 °F 68.4 °F 29.85 in SW 1.4 mph 2.3 mph 49 % 0.00 in
18:29 89.6 °F 67.3 °F 29.84 in SSE 1.1 mph 3.5 mph 48 % 0.00 in
18:34 89.1 °F 67.5 °F 29.85 in SSE 0.8 mph 2.3 mph 49 % 0.00 in
18:39 88.7 °F 67.7 °F 29.84 in SSE 0.9 mph 3.5 mph 50 % 0.00 in
18:44 88.4 °F 68.0 °F 29.85 in SSW 1.9 mph 3.5 mph 51 % 0.00 in
18:49 88.2 °F 67.8 °F 29.84 in South 1.0 mph 2.3 mph 51 % 0.00 in
18:54 87.9 °F 68.1 °F 29.85 in SW 1.0 mph 2.3 mph 52 % 0.00 in
18:59 87.7 °F 68.4 °F 29.85 in SSW 0.5 mph 2.3 mph 53 % 0.00 in
19:04 87.5 °F 68.8 °F 29.85 in SSE 1.0 mph 2.3 mph 54 % 0.00 in
19:09 87.1 °F 67.9 °F 29.85 in SSE 0.9 mph 2.3 mph 53 % 0.00 in
19:15 86.9 °F 68.3 °F 29.85 in SW 1.6 mph 3.5 mph 54 % 0.00 in
19:20 86.6 °F 68.5 °F 29.85 in SSW 0.9 mph 2.3 mph 55 % 0.00 in
19:25 86.4 °F 68.8 °F 29.85 in South 1.8 mph 3.5 mph 56 % 0.00 in
19:35 85.4 °F 68.4 °F 29.85 in SSE 1.0 mph 3.5 mph 57 % 0.00 in
19:40 85.1 °F 68.7 °F 29.85 in South 0.5 mph 1.2 mph 58 % 0.00 in
19:45 84.8 °F 68.4 °F 29.85 in SSW 1.0 mph 3.5 mph 58 % 0.00 in
19:50 84.6 °F 68.2 °F 29.85 in SW 0.1 mph 1.2 mph 58 % 0.00 in
19:55 84.3 °F 68.4 °F 29.85 in SW 0.4 mph 2.3 mph 59 % 0.00 in
20:00 83.9 °F 68.5 °F 29.85 in SW 0.6 mph 2.0 mph 60 % 0.00 in
20:05 83.7 °F 68.3 °F 29.85 in WSW 0.4 mph 1.2 mph 60 % 0.00 in
20:11 83.4 °F 68.0 °F 29.85 in Calm   4.0 mph 60 % 0.00 in
20:15 83.1 °F 68.2 °F 29.85 in Calm   2.0 mph 61 % 0.00 in
20:20 82.8 °F 68.0 °F 29.85 in SSW 1.0 mph 3.0 mph 61 % 0.00 in
20:26 82.6 °F 68.2 °F 29.85 in SSW 1.0 mph 2.0 mph 62 % 0.00 in
20:30 82.2 °F 67.9 °F 29.85 in Calm   3.0 mph 62 % 0.00 in
20:35 81.7 °F 67.9 °F 29.86 in Calm   2.0 mph 63 % 0.00 in
20:41 81.5 °F 68.1 °F 29.86 in South 1.0 mph 2.0 mph 64 % 0.00 in
20:45 81.2 °F 68.3 °F 29.86 in SSW 1.0 mph 4.0 mph 65 % 0.00 in
20:51 81.0 °F 68.6 °F 29.87 in SSW 1.0 mph 4.0 mph 66 % 0.00 in
20:55 80.8 °F 68.4 °F 29.87 in Calm   3.0 mph 66 % 0.00 in
21:01 80.5 °F 68.5 °F 29.87 in SSW 1.0 mph 2.3 mph 67 % 0.00 in
21:06 80.3 °F 68.8 °F 29.87 in SSW 0.4 mph 2.0 mph 68 % 0.00 in
21:11 80.1 °F 69.0 °F 29.87 in SSE 1.4 mph 3.5 mph 69 % 0.00 in
21:16 79.8 °F 69.1 °F 29.88 in SSE 1.1 mph 3.5 mph 70 % 0.00 in
21:21 79.6 °F 69.4 °F 29.87 in South 1.5 mph 3.5 mph 71 % 0.00 in
21:26 79.4 °F 69.6 °F 29.88 in SW 1.6 mph 3.5 mph 72 % 0.00 in
21:31 79.3 °F 69.9 °F 29.87 in SSE 0.3 mph 3.5 mph 73 % 0.00 in
21:36 79.0 °F 70.0 °F 29.88 in SSW 1.0 mph 3.5 mph 74 % 0.00 in
21:41 78.8 °F 70.2 °F 29.88 in SSE 0.7 mph 2.3 mph 75 % 0.00 in
21:46 78.6 °F 70.4 °F 29.88 in SSE 0.7 mph 2.3 mph 76 % 0.00 in
21:51 78.4 °F 70.6 °F 29.88 in Calm   1.2 mph 77 % 0.00 in
21:57 78.2 °F 70.4 °F 29.88 in SSW 0.8 mph 3.5 mph 77 % 0.00 in
22:02 78.1 °F 70.7 °F 29.88 in South 0.5 mph 2.3 mph 78 % 0.00 in
22:07 77.9 °F 70.9 °F 29.88 in South 0.3 mph 2.0 mph 79 % 0.00 in
22:12 77.8 °F 71.1 °F 29.88 in SSW 0.7 mph 2.3 mph 80 % 0.00 in
22:17 77.7 °F 71.0 °F 29.88 in SSW 0.1 mph 1.2 mph 80 % 0.00 in
22:22 77.6 °F 70.9 °F 29.88 in SSE 0.1 mph 2.3 mph 80 % 0.00 in
22:27 77.5 °F 71.2 °F 29.88 in South 0.1 mph 2.3 mph 81 % 0.00 in
22:32 77.4 °F 71.1 °F 29.88 in South 0.2 mph 2.3 mph 81 % 0.00 in
22:37 77.4 °F 71.1 °F 29.88 in South 0.1 mph 1.2 mph 81 % 0.00 in
22:42 77.3 °F 71.0 °F 29.88 in SE 0.1 mph 1.2 mph 81 % 0.00 in
22:48 77.2 °F 70.9 °F 29.88 in SE 1.1 mph 2.3 mph 81 % 0.00 in
22:53 77.1 °F 70.8 °F 29.88 in Calm   1.2 mph 81 % 0.00 in
23:03 77.0 °F 71.1 °F 29.88 in SE 0.3 mph 2.3 mph 82 % 0.00 in
23:08 76.9 °F 71.3 °F 29.87 in Calm     83 % 0.00 in
23:13 76.9 °F 71.3 °F 29.87 in SE 0.2 mph 1.2 mph 83 % 0.00 in
23:18 76.8 °F 71.2 °F 29.87 in Calm     83 % 0.00 in
23:23 76.8 °F 71.2 °F 29.87 in SE 0.1 mph 1.0 mph 83 % 0.00 in
23:28 76.7 °F 71.1 °F 29.87 in SE 0.1 mph 1.2 mph 83 % 0.00 in
23:34 76.7 °F 71.1 °F 29.87 in SSE 0.1 mph 1.0 mph 83 % 0.00 in
23:39 76.6 °F 71.4 °F 29.86 in SSE 0.1 mph 1.2 mph 84 % 0.00 in
23:44 76.6 °F 71.4 °F 29.87 in SSE 0.1 mph 1.2 mph 84 % 0.00 in
23:49 76.5 °F 71.3 °F 29.87 in Calm     84 % 0.00 in
23:54 76.5 °F 71.7 °F 29.87 in Calm   1.2 mph 85 % 0.00 in
23:59 76.4 °F 71.6 °F 29.87 in SSE 0.2 mph 2.3 mph 85 % 0.00 in
Crab Meadow Weather
Compliments of Weather Underground - 3.25 mb

Script developed by  Jim McMurry - jmcmurry@mwt.net Adapted for the template by  Wim van der Kuil - Leuven-Template.eu

Weather Terms: Rain/Showers - Rain is a nearly steady and uniform fall of precipitation over an area. Showers are intermittent and/or scattered convective rainfall of varying intensity.